Accueil
METAR-TAF:

METAR-TAF

Aéroports :

Uden, Pays-Bas

Base aérienne Volkel-Uden

latitude: 51-39N, longitude: 005-42E, altitude: 22 m

Observation

Le bulletin a été fait il y a 15 minutes, à 04:55 UTC
Vent 3 kt de est/sud-est
Température -4°C
Humidité 93%
Pression 1025 hPa
Visibilité: 9000 m
brume

METAR: EHVK 180455Z AUTO 12003KT 9000 BR NCD M04/M05 Q1025 BLU

Heure: 06:10 (05:10 UTC)


TAF: absent

Observations et prévisions météorologiques de plus de 4000 aéroports (messages METAR et TAF).

Les stations disponibles sont représentées par des disques jaunes et rouges sur la carte.

Passer la souris dessus pour voir le nom de la station.

Cliquer dessus pour voir les observations et prévisions météorologiques.

Pour changer de carte: cliquez sur les boutons verts avec une croix noire pour zoomer, sur le bouton vert avec un tiret pour effectuer un zoom arrière, ou sur les flèches vertes pour les cartes adjacentes.


METAR-TAF: